Historyczne dane pomiarowe

Dodano dane terminowe – wersja testowa.

Dane z okresu 1951-2019

Wersja bazy: 1.34 [2019-03-16, lista zmian], aktualizacja planowana na 2019-04-15

Dane meteo z obszaru Polski uzyskane na podstawie danych udostępnionych przez Instytut Meteorologii i Gospodarki Wodnej – Państwowy Instytut Badawczy.

 

Wybierz Datę:    

       

TemperaturaWilgotnośćZachmurzenieWiatrCiśnienieWidzialnośćZjawiska
 Data    tng td wb rh cc ccl cl cm ch dir g1 g2 mslp ppp      
1994-06-22 00:00:00 13.4--- 11.5 12.388wxwxwx0wx--1018.9 978.1 0.0---wx
1994-06-22 01:00:00 13.5--- 11.6 12.488wxwxwx0wx--1018.9 978.1----wx
1994-06-22 02:00:00 12.6--- 11.5 12.093wxwxwx0wx--1018.6 977.7----wx
1994-06-22 03:00:00 12.4--- 11.0 11.691wxwxwxwx0wx--1018.5 977.5----wx
1994-06-22 04:00:00 13.0--- 11.2 12.089wxwxwxwx0wx--1018.4 977.5----wx
1994-06-22 05:00:00 14.7--- 12.1 13.285wxwxwxwx0wx--1018.1 977.5----wx
1994-06-22 06:00:00 18.6--- 13.7 15.673wxwxwxwx2wx--1017.8 977.7 0.0---wx
1994-06-22 07:00:00 19.3--- 12.6 15.365wxwxwxwx3wx--1018.0 978.0----wx
1994-06-22 08:00:00 20.1--- 12.8 15.763wxwxwxwx4wx--1017.7 977.8----wx
1994-06-22 09:00:00 20.3--- 13.0 15.963wxwxwxwx4wx--1017.5 977.7----wx
1994-06-22 10:00:00 22.9--- 15.0 17.961wxwxwxwx4wx--1016.8 977.3----wx
1994-06-22 11:00:00 23.0--- 13.8 17.356wxwxwx5wx--1017.0 977.5----wx
1994-06-22 12:00:00 24.1--- 14.6 18.155wxwxwx5wx--1016.4 977.1 0.0---wx
1994-06-22 13:00:00 24.5--- 14.7 18.354wxwxwx5wx--1016.0 976.8----wx
1994-06-22 14:00:00 23.9--- 14.7 18.156wxwxwx3wx--1016.0 976.7----wx
1994-06-22 15:00:00 22.5--- 14.2 17.359wxwxwx4wx--1016.2 976.7----wx
1994-06-22 16:00:00 22.5--- 14.7 17.661wxwxwx3wx--1016.7 977.2----wx
1994-06-22 17:00:00 21.1--- 12.9 16.159wxwxwxwx5wx--1017.2 977.5----wx
1994-06-22 18:00:00 20.6--- 14.3 16.767wxwxwxwx4wx--1017.3 977.5 0.0---wx
1994-06-22 19:00:00 19.9--- 13.7 16.167wxwxwxwx4wx--1017.6 977.7----wx
1994-06-22 20:00:00 19.1--- 12.6 15.266wxwxwx2wx--1018.1 978.1----wx
1994-06-22 21:00:00 17.7--- 11.9 14.369wxwxwx2wx--1018.6 978.4----wx
1994-06-22 22:00:00 18.3--- 11.1 14.163wxwxwx4wx--1019.1 978.9----wx
1994-06-22 23:00:00 17.3--- 11.1 13.767wxwxwx2wx--1019.6 979.3----wx

 

Źródłem pochodzenia danych jest Instytut Meteorologii i Gospodarki Wodnej – Państwowy Instytut Badawczy. Dane Instytutu Meteorologii i Gospodarki Wodnej – Państwowego Instytutu Badawczego zostały przetworzone.

Dane źródłowe można odnaleźć na stronie https://dane.imgw.pl